sensor_id;sensor_type;location;lat;lon;timestamp;temperature;humidity
3332;DHT22;1678;50.94845400;5.30809100;2022-08-01T00:00:58;20.80;99.90
3332;DHT22;1678;50.94845400;5.30809100;2022-08-01T00:03:28;20.70;99.90
3332;DHT22;1678;50.94845400;5.30809100;2022-08-01T00:05:56;20.70;99.90
3332;DHT22;1678;50.94845400;5.30809100;2022-08-01T00:08:24;20.70;99.90
3332;DHT22;1678;50.94845400;5.30809100;2022-08-01T00:10:52;20.70;99.90
3332;DHT22;1678;50.94845400;5.30809100;2022-08-01T00:13:20;20.60;99.90
3332;DHT22;1678;50.94845400;5.30809100;2022-08-01T00:15:48;20.60;99.90
3332;DHT22;1678;50.94845400;5.30809100;2022-08-01T00:18:20;20.50;99.90
3332;DHT22;1678;50.94845400;5.30809100;2022-08-01T00:20:49;20.60;99.90
3332;DHT22;1678;50.94845400;5.30809100;2022-08-01T00:23:17;20.60;99.90
3332;DHT22;1678;50.94845400;5.30809100;2022-08-01T00:25:45;20.60;99.90
3332;DHT22;1678;50.94845400;5.30809100;2022-08-01T00:28:14;20.60;99.90
3332;DHT22;1678;50.94845400;5.30809100;2022-08-01T00:30:42;20.60;99.90
3332;DHT22;1678;50.94845400;5.30809100;2022-08-01T00:33:11;20.50;99.90
3332;DHT22;1678;50.94845400;5.30809100;2022-08-01T00:35:39;20.60;99.90
3332;DHT22;1678;50.94845400;5.30809100;2022-08-01T00:38:08;20.60;99.90
3332;DHT22;1678;50.94845400;5.30809100;2022-08-01T00:40:37;20.60;99.90
3332;DHT22;1678;50.94845400;5.30809100;2022-08-01T00:43:05;20.60;99.90
3332;DHT22;1678;50.94845400;5.30809100;2022-08-01T00:45:33;20.70;99.90
3332;DHT22;1678;50.94845400;5.30809100;2022-08-01T00:48:01;20.60;99.90
3332;DHT22;1678;50.94845400;5.30809100;2022-08-01T00:50:30;20.70;99.90
3332;DHT22;1678;50.94845400;5.30809100;2022-08-01T00:52:59;20.70;99.90
3332;DHT22;1678;50.94845400;5.30809100;2022-08-01T00:55:28;20.70;99.90
3332;DHT22;1678;50.94845400;5.30809100;2022-08-01T00:57:58;20.70;99.90
3332;DHT22;1678;50.94845400;5.30809100;2022-08-01T01:00:32;20.70;99.90
3332;DHT22;1678;50.94845400;5.30809100;2022-08-01T01:03:20;20.70;99.90
3332;DHT22;1678;50.94845400;5.30809100;2022-08-01T01:06:11;20.70;99.90
3332;DHT22;1678;50.94845400;5.30809100;2022-08-01T01:08:44;20.70;99.90
3332;DHT22;1678;50.94845400;5.30809100;2022-08-01T01:11:21;20.70;99.90
3332;DHT22;1678;50.94845400;5.30809100;2022-08-01T01:13:59;20.70;99.90
3332;DHT22;1678;50.94845400;5.30809100;2022-08-01T01:16:30;20.70;99.90
3332;DHT22;1678;50.94845400;5.30809100;2022-08-01T01:19:01;20.70;99.90
3332;DHT22;1678;50.94845400;5.30809100;2022-08-01T01:21:44;20.70;99.90
3332;DHT22;1678;50.94845400;5.30809100;2022-08-01T01:24:21;20.60;99.90
3332;DHT22;1678;50.94845400;5.30809100;2022-08-01T01:26:59;20.70;99.90
3332;DHT22;1678;50.94845400;5.30809100;2022-08-01T01:29:32;20.60;99.90
3332;DHT22;1678;50.94845400;5.30809100;2022-08-01T01:32:28;20.60;99.90
3332;DHT22;1678;50.94845400;5.30809100;2022-08-01T01:35:02;20.60;99.90
3332;DHT22;1678;50.94845400;5.30809100;2022-08-01T01:37:33;20.60;99.90
3332;DHT22;1678;50.94845400;5.30809100;2022-08-01T01:40:02;20.60;99.90
3332;DHT22;1678;50.94845400;5.30809100;2022-08-01T01:42:32;20.70;99.90
3332;DHT22;1678;50.94845400;5.30809100;2022-08-01T01:45:03;20.70;99.90
3332;DHT22;1678;50.94845400;5.30809100;2022-08-01T01:47:33;20.60;99.90
3332;DHT22;1678;50.94845400;5.30809100;2022-08-01T01:50:03;20.60;99.90
3332;DHT22;1678;50.94845400;5.30809100;2022-08-01T01:52:32;20.60;99.90
3332;DHT22;1678;50.94845400;5.30809100;2022-08-01T01:55:01;20.60;99.90
3332;DHT22;1678;50.94845400;5.30809100;2022-08-01T01:57:36;20.60;99.90
3332;DHT22;1678;50.94845400;5.30809100;2022-08-01T02:00:08;20.50;99.90
3332;DHT22;1678;50.94845400;5.30809100;2022-08-01T02:02:38;20.50;99.90
3332;DHT22;1678;50.94845400;5.30809100;2022-08-01T02:05:09;20.50;99.90
3332;DHT22;1678;50.94845400;5.30809100;2022-08-01T02:07:38;20.40;99.90
3332;DHT22;1678;50.94845400;5.30809100;2022-08-01T02:10:08;20.30;99.90
3332;DHT22;1678;50.94845400;5.30809100;2022-08-01T02:12:40;20.30;99.90
3332;DHT22;1678;50.94845400;5.30809100;2022-08-01T02:15:11;20.30;99.90
3332;DHT22;1678;50.94845400;5.30809100;2022-08-01T02:17:44;20.30;99.90
3332;DHT22;1678;50.94845400;5.30809100;2022-08-01T02:20:13;20.30;99.90
3332;DHT22;1678;50.94845400;5.30809100;2022-08-01T02:22:47;20.30;99.90
3332;DHT22;1678;50.94845400;5.30809100;2022-08-01T02:25:22;20.40;99.90
3332;DHT22;1678;50.94845400;5.30809100;2022-08-01T02:28:06;20.40;99.90
3332;DHT22;1678;50.94845400;5.30809100;2022-08-01T02:30:44;20.30;99.90
3332;DHT22;1678;50.94845400;5.30809100;2022-08-01T02:33:17;20.30;99.90
3332;DHT22;1678;50.94845400;5.30809100;2022-08-01T02:35:49;20.30;99.90
3332;DHT22;1678;50.94845400;5.30809100;2022-08-01T02:38:41;20.30;99.90
3332;DHT22;1678;50.94845400;5.30809100;2022-08-01T02:41:13;20.30;99.90
3332;DHT22;1678;50.94845400;5.30809100;2022-08-01T02:43:46;20.30;99.90
3332;DHT22;1678;50.94845400;5.30809100;2022-08-01T02:46:24;20.30;99.90
3332;DHT22;1678;50.94845400;5.30809100;2022-08-01T02:48:54;20.30;99.90
3332;DHT22;1678;50.94845400;5.30809100;2022-08-01T02:51:25;20.30;99.90
3332;DHT22;1678;50.94845400;5.30809100;2022-08-01T02:53:55;20.30;99.90
3332;DHT22;1678;50.94845400;5.30809100;2022-08-01T02:56:25;20.30;99.90
3332;DHT22;1678;50.94845400;5.30809100;2022-08-01T02:59:04;20.30;99.90
3332;DHT22;1678;50.94845400;5.30809100;2022-08-01T03:01:36;20.30;99.90
3332;DHT22;1678;50.94845400;5.30809100;2022-08-01T03:04:08;20.30;99.90
3332;DHT22;1678;50.94845400;5.30809100;2022-08-01T03:06:37;20.30;99.90
3332;DHT22;1678;50.94845400;5.30809100;2022-08-01T03:09:10;20.20;99.90
3332;DHT22;1678;50.94845400;5.30809100;2022-08-01T03:11:41;20.30;99.90
3332;DHT22;1678;50.94845400;5.30809100;2022-08-01T03:14:11;20.30;99.90
3332;DHT22;1678;50.94845400;5.30809100;2022-08-01T03:16:43;20.30;99.90
3332;DHT22;1678;50.94845400;5.30809100;2022-08-01T03:19:13;20.30;99.90
3332;DHT22;1678;50.94845400;5.30809100;2022-08-01T03:21:43;20.30;99.90
3332;DHT22;1678;50.94845400;5.30809100;2022-08-01T03:24:12;20.40;99.90
3332;DHT22;1678;50.94845400;5.30809100;2022-08-01T03:26:43;20.40;99.90
3332;DHT22;1678;50.94845400;5.30809100;2022-08-01T03:29:16;20.40;99.90
3332;DHT22;1678;50.94845400;5.30809100;2022-08-01T03:31:48;20.40;99.90
3332;DHT22;1678;50.94845400;5.30809100;2022-08-01T03:34:16;20.30;99.90
3332;DHT22;1678;50.94845400;5.30809100;2022-08-01T03:36:49;20.30;99.90
3332;DHT22;1678;50.94845400;5.30809100;2022-08-01T03:39:18;20.30;99.90
3332;DHT22;1678;50.94845400;5.30809100;2022-08-01T03:41:54;20.30;99.90
3332;DHT22;1678;50.94845400;5.30809100;2022-08-01T03:44:26;20.30;99.90
3332;DHT22;1678;50.94845400;5.30809100;2022-08-01T03:47:00;20.30;99.90
3332;DHT22;1678;50.94845400;5.30809100;2022-08-01T03:49:31;20.30;99.90
3332;DHT22;1678;50.94845400;5.30809100;2022-08-01T03:52:01;20.30;99.90
3332;DHT22;1678;50.94845400;5.30809100;2022-08-01T03:54:33;20.30;99.90
3332;DHT22;1678;50.94845400;5.30809100;2022-08-01T03:57:02;20.30;99.90
3332;DHT22;1678;50.94845400;5.30809100;2022-08-01T03:59:32;20.30;99.90
3332;DHT22;1678;50.94845400;5.30809100;2022-08-01T04:02:05;20.30;99.90
3332;DHT22;1678;50.94845400;5.30809100;2022-08-01T04:04:34;20.30;99.90
3332;DHT22;1678;50.94845400;5.30809100;2022-08-01T04:07:02;20.30;99.90
3332;DHT22;1678;50.94845400;5.30809100;2022-08-01T04:09:33;20.40;99.90
3332;DHT22;1678;50.94845400;5.30809100;2022-08-01T04:12:01;20.30;99.90
3332;DHT22;1678;50.94845400;5.30809100;2022-08-01T04:14:38;20.30;99.90
3332;DHT22;1678;50.94845400;5.30809100;2022-08-01T04:17:07;20.20;99.90
3332;DHT22;1678;50.94845400;5.30809100;2022-08-01T04:19:35;20.20;99.90
3332;DHT22;1678;50.94845400;5.30809100;2022-08-01T04:22:04;20.20;99.90
3332;DHT22;1678;50.94845400;5.30809100;2022-08-01T04:24:35;20.20;99.90
3332;DHT22;1678;50.94845400;5.30809100;2022-08-01T04:27:08;20.20;99.90
3332;DHT22;1678;50.94845400;5.30809100;2022-08-01T04:29:38;20.20;99.90
3332;DHT22;1678;50.94845400;5.30809100;2022-08-01T04:32:11;20.20;99.90
3332;DHT22;1678;50.94845400;5.30809100;2022-08-01T04:34:41;20.20;99.90
3332;DHT22;1678;50.94845400;5.30809100;2022-08-01T04:37:14;20.30;99.90
3332;DHT22;1678;50.94845400;5.30809100;2022-08-01T04:39:44;20.30;99.90
3332;DHT22;1678;50.94845400;5.30809100;2022-08-01T04:42:16;20.20;99.90
3332;DHT22;1678;50.94845400;5.30809100;2022-08-01T04:44:51;20.30;99.90
3332;DHT22;1678;50.94845400;5.30809100;2022-08-01T04:47:22;20.30;99.90
3332;DHT22;1678;50.94845400;5.30809100;2022-08-01T04:49:51;20.40;99.90
3332;DHT22;1678;50.94845400;5.30809100;2022-08-01T04:52:19;20.40;99.90
3332;DHT22;1678;50.94845400;5.30809100;2022-08-01T04:54:50;20.40;99.90
3332;DHT22;1678;50.94845400;5.30809100;2022-08-01T04:57:18;20.50;99.90
3332;DHT22;1678;50.94845400;5.30809100;2022-08-01T04:59:46;20.40;99.90
3332;DHT22;1678;50.94845400;5.30809100;2022-08-01T05:02:17;20.40;99.90
3332;DHT22;1678;50.94845400;5.30809100;2022-08-01T05:04:47;20.40;99.90
3332;DHT22;1678;50.94845400;5.30809100;2022-08-01T05:07:15;20.30;99.90
3332;DHT22;1678;50.94845400;5.30809100;2022-08-01T05:09:43;20.10;99.90
3332;DHT22;1678;50.94845400;5.30809100;2022-08-01T05:12:12;20.00;99.90
3332;DHT22;1678;50.94845400;5.30809100;2022-08-01T05:14:40;19.70;99.90
3332;DHT22;1678;50.94845400;5.30809100;2022-08-01T05:17:09;19.70;99.90
3332;DHT22;1678;50.94845400;5.30809100;2022-08-01T05:19:38;19.60;99.90
3332;DHT22;1678;50.94845400;5.30809100;2022-08-01T05:22:09;19.70;99.90
3332;DHT22;1678;50.94845400;5.30809100;2022-08-01T05:24:38;19.70;99.90
3332;DHT22;1678;50.94845400;5.30809100;2022-08-01T05:27:07;19.80;99.90
3332;DHT22;1678;50.94845400;5.30809100;2022-08-01T05:29:39;19.70;99.90
3332;DHT22;1678;50.94845400;5.30809100;2022-08-01T05:32:10;19.70;99.90
3332;DHT22;1678;50.94845400;5.30809100;2022-08-01T05:34:38;19.60;99.90
3332;DHT22;1678;50.94845400;5.30809100;2022-08-01T05:37:08;19.50;99.90
3332;DHT22;1678;50.94845400;5.30809100;2022-08-01T05:39:36;19.50;99.90
3332;DHT22;1678;50.94845400;5.30809100;2022-08-01T05:42:04;19.40;99.90
3332;DHT22;1678;50.94845400;5.30809100;2022-08-01T05:44:33;19.30;99.90
3332;DHT22;1678;50.94845400;5.30809100;2022-08-01T05:47:01;19.30;99.90
3332;DHT22;1678;50.94845400;5.30809100;2022-08-01T05:49:30;19.30;99.90
3332;DHT22;1678;50.94845400;5.30809100;2022-08-01T05:51:58;19.20;99.90
3332;DHT22;1678;50.94845400;5.30809100;2022-08-01T05:54:30;19.40;99.90
3332;DHT22;1678;50.94845400;5.30809100;2022-08-01T05:56:58;19.40;99.90
3332;DHT22;1678;50.94845400;5.30809100;2022-08-01T05:59:28;19.40;99.90
3332;DHT22;1678;50.94845400;5.30809100;2022-08-01T06:01:56;19.60;99.90
3332;DHT22;1678;50.94845400;5.30809100;2022-08-01T06:04:24;19.70;99.90
3332;DHT22;1678;50.94845400;5.30809100;2022-08-01T06:06:52;19.70;99.90
3332;DHT22;1678;50.94845400;5.30809100;2022-08-01T06:09:21;19.70;99.90
3332;DHT22;1678;50.94845400;5.30809100;2022-08-01T06:11:50;19.80;99.90
3332;DHT22;1678;50.94845400;5.30809100;2022-08-01T06:14:18;19.80;99.90
3332;DHT22;1678;50.94845400;5.30809100;2022-08-01T06:16:46;20.00;99.90
3332;DHT22;1678;50.94845400;5.30809100;2022-08-01T06:19:15;20.10;99.90
3332;DHT22;1678;50.94845400;5.30809100;2022-08-01T06:21:43;20.10;99.90
3332;DHT22;1678;50.94845400;5.30809100;2022-08-01T06:24:11;20.20;99.90
3332;DHT22;1678;50.94845400;5.30809100;2022-08-01T06:26:39;20.30;99.90
3332;DHT22;1678;50.94845400;5.30809100;2022-08-01T06:29:08;20.40;99.90
3332;DHT22;1678;50.94845400;5.30809100;2022-08-01T06:31:38;20.50;99.90
3332;DHT22;1678;50.94845400;5.30809100;2022-08-01T06:34:06;20.50;99.90
3332;DHT22;1678;50.94845400;5.30809100;2022-08-01T06:36:34;20.50;99.90
3332;DHT22;1678;50.94845400;5.30809100;2022-08-01T06:39:02;20.40;99.90
3332;DHT22;1678;50.94845400;5.30809100;2022-08-01T06:41:30;20.60;99.90
3332;DHT22;1678;50.94845400;5.30809100;2022-08-01T06:43:58;20.70;99.90
3332;DHT22;1678;50.94845400;5.30809100;2022-08-01T06:46:30;20.80;99.90
3332;DHT22;1678;50.94845400;5.30809100;2022-08-01T06:49:00;20.80;99.90
3332;DHT22;1678;50.94845400;5.30809100;2022-08-01T06:51:28;21.00;99.90
3332;DHT22;1678;50.94845400;5.30809100;2022-08-01T06:53:57;21.20;99.90
3332;DHT22;1678;50.94845400;5.30809100;2022-08-01T06:56:25;21.20;99.90
3332;DHT22;1678;50.94845400;5.30809100;2022-08-01T06:58:53;21.40;99.90
3332;DHT22;1678;50.94845400;5.30809100;2022-08-01T07:01:22;21.50;99.90
3332;DHT22;1678;50.94845400;5.30809100;2022-08-01T07:03:52;21.50;99.90
3332;DHT22;1678;50.94845400;5.30809100;2022-08-01T07:06:22;21.70;99.90
3332;DHT22;1678;50.94845400;5.30809100;2022-08-01T07:08:51;21.80;99.90
3332;DHT22;1678;50.94845400;5.30809100;2022-08-01T07:11:20;21.90;99.90
3332;DHT22;1678;50.94845400;5.30809100;2022-08-01T07:13:48;22.00;99.90
3332;DHT22;1678;50.94845400;5.30809100;2022-08-01T07:16:17;22.30;99.90
3332;DHT22;1678;50.94845400;5.30809100;2022-08-01T07:18:45;22.30;99.90
3332;DHT22;1678;50.94845400;5.30809100;2022-08-01T07:21:14;22.70;99.90
3332;DHT22;1678;50.94845400;5.30809100;2022-08-01T07:24:03;22.70;99.90
3332;DHT22;1678;50.94845400;5.30809100;2022-08-01T07:26:39;22.80;99.90
3332;DHT22;1678;50.94845400;5.30809100;2022-08-01T07:29:20;23.40;99.90
3332;DHT22;1678;50.94845400;5.30809100;2022-08-01T07:31:48;23.70;99.90
3332;DHT22;1678;50.94845400;5.30809100;2022-08-01T07:34:17;23.30;99.90
3332;DHT22;1678;50.94845400;5.30809100;2022-08-01T07:36:47;23.20;99.90
3332;DHT22;1678;50.94845400;5.30809100;2022-08-01T07:39:15;23.00;99.90
3332;DHT22;1678;50.94845400;5.30809100;2022-08-01T07:41:43;22.80;99.90
3332;DHT22;1678;50.94845400;5.30809100;2022-08-01T07:44:31;22.70;99.90
3332;DHT22;1678;50.94845400;5.30809100;2022-08-01T07:46:59;22.50;99.90
3332;DHT22;1678;50.94845400;5.30809100;2022-08-01T07:49:27;22.50;99.90
3332;DHT22;1678;50.94845400;5.30809100;2022-08-01T07:51:57;22.50;99.90
3332;DHT22;1678;50.94845400;5.30809100;2022-08-01T07:54:30;22.30;99.90
3332;DHT22;1678;50.94845400;5.30809100;2022-08-01T07:57:00;22.50;99.90
3332;DHT22;1678;50.94845400;5.30809100;2022-08-01T07:59:28;22.50;99.90
3332;DHT22;1678;50.94845400;5.30809100;2022-08-01T08:01:56;22.50;99.90
3332;DHT22;1678;50.94845400;5.30809100;2022-08-01T08:04:25;22.60;99.90
3332;DHT22;1678;50.94845400;5.30809100;2022-08-01T08:06:53;22.70;99.90
3332;DHT22;1678;50.94845400;5.30809100;2022-08-01T08:09:23;22.90;99.90
3332;DHT22;1678;50.94845400;5.30809100;2022-08-01T08:11:51;23.20;99.90
3332;DHT22;1678;50.94845400;5.30809100;2022-08-01T08:14:19;23.20;99.90
3332;DHT22;1678;50.94845400;5.30809100;2022-08-01T08:16:58;23.20;99.90
3332;DHT22;1678;50.94845400;5.30809100;2022-08-01T08:19:28;23.30;94.00
3332;DHT22;1678;50.94845400;5.30809100;2022-08-01T08:22:05;23.30;99.90
3332;DHT22;1678;50.94845400;5.30809100;2022-08-01T08:24:35;23.10;96.60
3332;DHT22;1678;50.94845400;5.30809100;2022-08-01T08:27:12;23.10;95.60
3332;DHT22;1678;50.94845400;5.30809100;2022-08-01T08:29:41;23.20;95.60
3332;DHT22;1678;50.94845400;5.30809100;2022-08-01T08:32:09;23.30;95.60
3332;DHT22;1678;50.94845400;5.30809100;2022-08-01T08:34:37;23.40;90.50
3332;DHT22;1678;50.94845400;5.30809100;2022-08-01T08:37:05;23.70;91.80
3332;DHT22;1678;50.94845400;5.30809100;2022-08-01T08:39:36;23.80;88.10
3332;DHT22;1678;50.94845400;5.30809100;2022-08-01T08:42:09;24.00;85.10
3332;DHT22;1678;50.94845400;5.30809100;2022-08-01T08:44:38;24.40;86.20
3332;DHT22;1678;50.94845400;5.30809100;2022-08-01T08:47:11;24.80;78.00
3332;DHT22;1678;50.94845400;5.30809100;2022-08-01T08:49:46;24.90;74.70
3332;DHT22;1678;50.94845400;5.30809100;2022-08-01T08:52:15;25.30;72.30
3332;DHT22;1678;50.94845400;5.30809100;2022-08-01T08:54:47;25.30;71.00
3332;DHT22;1678;50.94845400;5.30809100;2022-08-01T08:57:16;25.20;70.30
3332;DHT22;1678;50.94845400;5.30809100;2022-08-01T08:59:47;25.10;69.40
3332;DHT22;1678;50.94845400;5.30809100;2022-08-01T09:02:15;24.80;70.60
3332;DHT22;1678;50.94845400;5.30809100;2022-08-01T09:04:43;24.70;70.50
3332;DHT22;1678;50.94845400;5.30809100;2022-08-01T09:07:12;24.40;72.60
3332;DHT22;1678;50.94845400;5.30809100;2022-08-01T09:09:41;24.60;73.20
3332;DHT22;1678;50.94845400;5.30809100;2022-08-01T09:12:11;24.40;73.00
3332;DHT22;1678;50.94845400;5.30809100;2022-08-01T09:14:45;24.40;73.00
3332;DHT22;1678;50.94845400;5.30809100;2022-08-01T09:17:13;24.60;72.90
3332;DHT22;1678;50.94845400;5.30809100;2022-08-01T09:19:44;24.90;71.00
3332;DHT22;1678;50.94845400;5.30809100;2022-08-01T09:22:16;25.00;69.40
3332;DHT22;1678;50.94845400;5.30809100;2022-08-01T09:24:58;24.80;68.70
3332;DHT22;1678;50.94845400;5.30809100;2022-08-01T09:27:28;24.80;72.30
3332;DHT22;1678;50.94845400;5.30809100;2022-08-01T09:30:08;25.10;68.40
3332;DHT22;1678;50.94845400;5.30809100;2022-08-01T09:32:51;25.00;69.80
3332;DHT22;1678;50.94845400;5.30809100;2022-08-01T09:35:25;25.00;67.60
3332;DHT22;1678;50.94845400;5.30809100;2022-08-01T09:38:14;25.20;68.20
3332;DHT22;1678;50.94845400;5.30809100;2022-08-01T09:40:48;25.30;63.70
3332;DHT22;1678;50.94845400;5.30809100;2022-08-01T09:43:18;25.10;66.70
3332;DHT22;1678;50.94845400;5.30809100;2022-08-01T09:45:48;24.80;66.40
3332;DHT22;1678;50.94845400;5.30809100;2022-08-01T09:48:19;24.50;68.70
3332;DHT22;1678;50.94845400;5.30809100;2022-08-01T09:50:55;25.00;68.50
3332;DHT22;1678;50.94845400;5.30809100;2022-08-01T09:53:47;25.60;66.40
3332;DHT22;1678;50.94845400;5.30809100;2022-08-01T09:56:19;25.50;62.10
3332;DHT22;1678;50.94845400;5.30809100;2022-08-01T09:58:54;25.50;63.30
3332;DHT22;1678;50.94845400;5.30809100;2022-08-01T10:01:29;25.50;63.10
3332;DHT22;1678;50.94845400;5.30809100;2022-08-01T10:04:10;25.40;63.80
3332;DHT22;1678;50.94845400;5.30809100;2022-08-01T10:06:41;25.20;66.60
3332;DHT22;1678;50.94845400;5.30809100;2022-08-01T10:09:12;25.00;68.60
3332;DHT22;1678;50.94845400;5.30809100;2022-08-01T10:11:42;25.20;64.50
3332;DHT22;1678;50.94845400;5.30809100;2022-08-01T10:14:12;25.50;64.00
3332;DHT22;1678;50.94845400;5.30809100;2022-08-01T10:16:45;25.60;60.70
3332;DHT22;1678;50.94845400;5.30809100;2022-08-01T10:19:22;25.20;59.80
3332;DHT22;1678;50.94845400;5.30809100;2022-08-01T10:21:52;25.30;58.90
3332;DHT22;1678;50.94845400;5.30809100;2022-08-01T10:24:26;25.40;59.90
3332;DHT22;1678;50.94845400;5.30809100;2022-08-01T10:27:02;25.30;57.00
3332;DHT22;1678;50.94845400;5.30809100;2022-08-01T10:29:40;25.60;58.50
3332;DHT22;1678;50.94845400;5.30809100;2022-08-01T10:32:13;25.80;56.30
3332;DHT22;1678;50.94845400;5.30809100;2022-08-01T10:34:41;25.60;57.40
3332;DHT22;1678;50.94845400;5.30809100;2022-08-01T10:37:13;25.60;58.80
3332;DHT22;1678;50.94845400;5.30809100;2022-08-01T10:39:41;25.10;60.80
3332;DHT22;1678;50.94845400;5.30809100;2022-08-01T10:42:11;25.00;63.30
3332;DHT22;1678;50.94845400;5.30809100;2022-08-01T10:44:43;25.30;64.40
3332;DHT22;1678;50.94845400;5.30809100;2022-08-01T10:47:17;25.50;60.60
3332;DHT22;1678;50.94845400;5.30809100;2022-08-01T10:49:58;25.50;60.70
3332;DHT22;1678;50.94845400;5.30809100;2022-08-01T10:52:30;26.10;57.90
3332;DHT22;1678;50.94845400;5.30809100;2022-08-01T10:55:06;26.30;53.00
3332;DHT22;1678;50.94845400;5.30809100;2022-08-01T10:57:43;26.20;56.40
3332;DHT22;1678;50.94845400;5.30809100;2022-08-01T11:00:21;26.30;52.20
3332;DHT22;1678;50.94845400;5.30809100;2022-08-01T11:02:59;26.20;53.50
3332;DHT22;1678;50.94845400;5.30809100;2022-08-01T11:05:32;26.30;50.90
3332;DHT22;1678;50.94845400;5.30809100;2022-08-01T11:08:02;26.70;52.80
3332;DHT22;1678;50.94845400;5.30809100;2022-08-01T11:10:37;26.90;49.90
3332;DHT22;1678;50.94845400;5.30809100;2022-08-01T11:13:06;26.60;50.70
3332;DHT22;1678;50.94845400;5.30809100;2022-08-01T11:15:37;26.80;50.40
3332;DHT22;1678;50.94845400;5.30809100;2022-08-01T11:18:31;26.60;48.50
3332;DHT22;1678;50.94845400;5.30809100;2022-08-01T11:21:03;26.40;50.00
3332;DHT22;1678;50.94845400;5.30809100;2022-08-01T11:23:52;26.40;48.80
3332;DHT22;1678;50.94845400;5.30809100;2022-08-01T11:26:21;26.70;48.70
3332;DHT22;1678;50.94845400;5.30809100;2022-08-01T11:29:13;26.70;48.80
3332;DHT22;1678;50.94845400;5.30809100;2022-08-01T11:31:49;26.50;48.50
3332;DHT22;1678;50.94845400;5.30809100;2022-08-01T11:34:19;26.80;47.90
3332;DHT22;1678;50.94845400;5.30809100;2022-08-01T11:36:48;26.80;47.70
3332;DHT22;1678;50.94845400;5.30809100;2022-08-01T11:39:25;27.30;45.70
3332;DHT22;1678;50.94845400;5.30809100;2022-08-01T11:41:55;27.60;43.70
3332;DHT22;1678;50.94845400;5.30809100;2022-08-01T11:44:48;27.40;41.70
3332;DHT22;1678;50.94845400;5.30809100;2022-08-01T11:47:44;27.80;41.30
3332;DHT22;1678;50.94845400;5.30809100;2022-08-01T11:50:31;27.90;41.50
3332;DHT22;1678;50.94845400;5.30809100;2022-08-01T11:53:01;27.90;41.80
3332;DHT22;1678;50.94845400;5.30809100;2022-08-01T11:55:30;27.90;42.00
3332;DHT22;1678;50.94845400;5.30809100;2022-08-01T11:57:59;27.90;41.20
3332;DHT22;1678;50.94845400;5.30809100;2022-08-01T12:00:29;27.70;40.20
3332;DHT22;1678;50.94845400;5.30809100;2022-08-01T12:03:01;27.60;41.70
3332;DHT22;1678;50.94845400;5.30809100;2022-08-01T12:05:31;27.40;41.80
3332;DHT22;1678;50.94845400;5.30809100;2022-08-01T12:08:01;27.70;42.00
3332;DHT22;1678;50.94845400;5.30809100;2022-08-01T12:10:32;27.60;42.00
3332;DHT22;1678;50.94845400;5.30809100;2022-08-01T12:13:15;27.60;42.90
3332;DHT22;1678;50.94845400;5.30809100;2022-08-01T12:15:44;27.50;42.20
3332;DHT22;1678;50.94845400;5.30809100;2022-08-01T12:18:14;27.30;43.50
3332;DHT22;1678;50.94845400;5.30809100;2022-08-01T12:20:45;27.20;42.60
3332;DHT22;1678;50.94845400;5.30809100;2022-08-01T12:23:23;27.30;42.10
3332;DHT22;1678;50.94845400;5.30809100;2022-08-01T12:25:52;27.10;44.20
3332;DHT22;1678;50.94845400;5.30809100;2022-08-01T12:28:20;27.20;43.80
3332;DHT22;1678;50.94845400;5.30809100;2022-08-01T12:30:50;26.90;42.40
3332;DHT22;1678;50.94845400;5.30809100;2022-08-01T12:33:20;27.20;42.70
3332;DHT22;1678;50.94845400;5.30809100;2022-08-01T12:35:48;27.50;40.60
3332;DHT22;1678;50.94845400;5.30809100;2022-08-01T12:38:19;27.90;41.60
3332;DHT22;1678;50.94845400;5.30809100;2022-08-01T12:40:49;28.40;39.30
3332;DHT22;1678;50.94845400;5.30809100;2022-08-01T12:43:21;27.90;39.40
3332;DHT22;1678;50.94845400;5.30809100;2022-08-01T12:45:56;27.80;38.90
3332;DHT22;1678;50.94845400;5.30809100;2022-08-01T12:48:27;28.60;38.90
3332;DHT22;1678;50.94845400;5.30809100;2022-08-01T12:50:59;28.40;37.00
3332;DHT22;1678;50.94845400;5.30809100;2022-08-01T12:53:29;28.80;37.10
3332;DHT22;1678;50.94845400;5.30809100;2022-08-01T12:56:07;28.60;36.80
3332;DHT22;1678;50.94845400;5.30809100;2022-08-01T12:58:36;28.70;36.10
3332;DHT22;1678;50.94845400;5.30809100;2022-08-01T13:01:05;28.70;37.40
3332;DHT22;1678;50.94845400;5.30809100;2022-08-01T13:03:36;29.30;36.10
3332;DHT22;1678;50.94845400;5.30809100;2022-08-01T13:06:10;29.30;34.80
3332;DHT22;1678;50.94845400;5.30809100;2022-08-01T13:08:39;30.00;35.90
3332;DHT22;1678;50.94845400;5.30809100;2022-08-01T13:11:09;29.70;32.90
3332;DHT22;1678;50.94845400;5.30809100;2022-08-01T13:13:43;29.00;35.90
3332;DHT22;1678;50.94845400;5.30809100;2022-08-01T13:16:14;28.80;35.40
3332;DHT22;1678;50.94845400;5.30809100;2022-08-01T13:19:01;28.60;37.20
3332;DHT22;1678;50.94845400;5.30809100;2022-08-01T13:21:30;29.10;36.70
3332;DHT22;1678;50.94845400;5.30809100;2022-08-01T13:24:23;29.20;35.30
3332;DHT22;1678;50.94845400;5.30809100;2022-08-01T13:26:54;28.80;36.00
3332;DHT22;1678;50.94845400;5.30809100;2022-08-01T13:29:32;28.20;37.10
3332;DHT22;1678;50.94845400;5.30809100;2022-08-01T13:32:12;27.50;39.20
3332;DHT22;1678;50.94845400;5.30809100;2022-08-01T13:35:04;27.40;40.30
3332;DHT22;1678;50.94845400;5.30809100;2022-08-01T13:37:34;27.30;39.50
3332;DHT22;1678;50.94845400;5.30809100;2022-08-01T13:40:05;27.40;37.90
3332;DHT22;1678;50.94845400;5.30809100;2022-08-01T13:42:34;27.90;38.30
3332;DHT22;1678;50.94845400;5.30809100;2022-08-01T13:45:03;28.60;37.00
3332;DHT22;1678;50.94845400;5.30809100;2022-08-01T13:47:40;28.80;33.00
3332;DHT22;1678;50.94845400;5.30809100;2022-08-01T13:50:30;28.90;32.60
3332;DHT22;1678;50.94845400;5.30809100;2022-08-01T13:52:59;29.40;34.20
3332;DHT22;1678;50.94845400;5.30809100;2022-08-01T13:55:27;28.70;36.40
3332;DHT22;1678;50.94845400;5.30809100;2022-08-01T13:58:00;27.90;38.50
3332;DHT22;1678;50.94845400;5.30809100;2022-08-01T14:00:29;27.40;41.80
3332;DHT22;1678;50.94845400;5.30809100;2022-08-01T14:02:57;28.10;41.00
3332;DHT22;1678;50.94845400;5.30809100;2022-08-01T14:05:25;29.20;37.10
3332;DHT22;1678;50.94845400;5.30809100;2022-08-01T14:07:55;29.40;34.90
3332;DHT22;1678;50.94845400;5.30809100;2022-08-01T14:10:24;29.00;36.50
3332;DHT22;1678;50.94845400;5.30809100;2022-08-01T14:12:52;28.80;36.60